Observation data for Guthrie on 03/11/2018      Previous  Date  Next       Current Mesonet Observations  Soil Data  Daily Summary Page  Observations in Plain Language
KPFS 110600Z 01011G16KT 16/04 A2987 RMK A01 T01640041  RH  045%=      5-min Rain = 0
KPFS 110605Z 01013G18KT 16/05 A2987 RMK A01 T01640045  RH  046%=      5-min Rain = 0
KPFS 110610Z 01014G19KT 16/06 A2987 RMK A01 T01630055  RH  049%=      5-min Rain = 0
KPFS 110615Z 01013KT 16/07 A2988 RMK A01 T01620065  RH  053%=      5-min Rain = 0
KPFS 110620Z 01014KT 16/07 A2989 RMK A01 T01620074  RH  057%=      5-min Rain = 0
KPFS 110625Z 01013G20KT 16/08 A2989 RMK A01 T01610080  RH  060%=      5-min Rain = 0
KPFS 110630Z 01013G19KT 16/09 A2989 RMK A01 T01610085  RH  062%=      5-min Rain = 0
KPFS 110635Z 01012G17KT 16/09 A299 RMK A01 T01590088  RH  063%=      5-min Rain = 0
KPFS 110640Z 01011KT 16/09 A299 RMK A01 T01580089  RH  065%=      5-min Rain = 0
KPFS 110645Z 01011G16KT 16/09 A299 RMK A01 T01580091  RH  066%=      5-min Rain = 0
KPFS 110650Z 02010G17KT 16/09 A2991 RMK A01 T01570093  RH  067%=      5-min Rain = 0
KPFS 110655Z 01011G16KT 16/10 A2991 RMK A01 T01580096  RH  068%=      5-min Rain = 0
KPFS 110700Z 01014G19KT 16/10 A2991 RMK A01 T01590098  RH  068%=      5-min Rain = 0
KPFS 110705Z 01015G22KT 16/10 A2991 RMK A01 T01600100  RH  068%=      5-min Rain = 0
KPFS 110710Z 01015G22KT 16/10 A2992 RMK A01 T01610101  RH  069%=      5-min Rain = 0
KPFS 110715Z 01018G26KT 16/10 A2992 RMK A01 T01620102  RH  068%=      5-min Rain = 0
KPFS 110720Z 01018G26KT 16/10 A2993 RMK A01 T01630102  RH  068%=      5-min Rain = 0
KPFS 110725Z 00022G31KT 17/10 A2993 RMK A01 T01650103  RH  068%=      5-min Rain = 0
KPFS 110730Z 01023G31KT 16/10 A2994 RMK A01 T01630098  RH  067%=      5-min Rain = 0
KPFS 110735Z 01018G27KT 16/09 A2994 RMK A01 T01610091  RH  064%=      5-min Rain = 0
KPFS 110740Z 01021G27KT 16/08 A2995 RMK A01 T01600081  RH  060%=      5-min Rain = 0
KPFS 110745Z 01020G34KT 16/07 A2995 RMK A01 T01590074  RH  058%=      5-min Rain = 0
KPFS 110750Z 01024G34KT 16/06 A2996 RMK A01 T01590057  RH  051%=      5-min Rain = 0
KPFS 110755Z 01022G32KT 16/04 A2996 RMK A01 T01580042  RH  047%=      5-min Rain = 0
KPFS 110800Z 01022G36KT 16/02 A2997 RMK A01 T01560023  RH  041%=      5-min Rain = 0
KPFS 110805Z 01023G34KT 15/01 A2997 RMK A01 T01540007  RH  037%=      5-min Rain = 0
KPFS 110810Z 02027G34KT 15/M00 A2997 RMK A01 T01541004  RH  034%=      5-min Rain = 0
KPFS 110815Z 01023G31KT 15/M01 A2997 RMK A01 T01531009  RH  033%=      5-min Rain = 0
KPFS 110820Z 02024G34KT 15/M01 A2997 RMK A01 T01521013  RH  033%=      5-min Rain = 0
KPFS 110825Z 01021G32KT 15/M01 A2998 RMK A01 T01511014  RH  032%=      5-min Rain = 0
KPFS 110830Z 02025G33KT 15/M02 A2998 RMK A01 T01501018  RH  032%=      5-min Rain = 0
KPFS 110835Z 02025G34KT 15/M02 A2998 RMK A01 T01491021  RH  031%=      5-min Rain = 0
KPFS 110840Z 01024G35KT 15/M02 A2998 RMK A01 T01481023  RH  031%=      5-min Rain = 0
KPFS 110845Z 02020G32KT 15/M02 A2998 RMK A01 T01471024  RH  031%=      5-min Rain = 0
KPFS 110850Z 01024G30KT 15/M03 A2999 RMK A01 T01471025  RH  031%=      5-min Rain = 0
KPFS 110855Z 02025G33KT 15/M03 A2998 RMK A01 T01461026  RH  031%=      5-min Rain = 0
KPFS 110900Z 02021G32KT 15/M03 A2999 RMK A01 T01451026  RH  031%=      5-min Rain = 0
KPFS 110905Z 02023G32KT 14/M03 A2999 RMK A01 T01441027  RH  031%=      5-min Rain = 0
KPFS 110910Z 02021G29KT 14/M03 A2999 RMK A01 T01431027  RH  031%=      5-min Rain = 0
KPFS 110915Z 01024G32KT 14/M03 A2999 RMK A01 T01431027  RH  031%=      5-min Rain = 0
KPFS 110920Z 01023G31KT 14/M03 A2999 RMK A01 T01421027  RH  031%=      5-min Rain = 0
KPFS 110925Z 01021G30KT 14/M03 A2999 RMK A01 T01411027  RH  031%=      5-min Rain = 0
KPFS 110930Z 01018G23KT 14/M03 A30 RMK A01 T01401027  RH  032%=      5-min Rain = 0
KPFS 110935Z 01020G28KT 14/M03 A30 RMK A01 T01391027  RH  032%=      5-min Rain = 0
KPFS 110940Z 01024G31KT 14/M03 A30 RMK A01 T01391026  RH  032%=      5-min Rain = 0
KPFS 110945Z 01022G30KT 14/M03 A30 RMK A01 T01381025  RH  032%=      5-min Rain = 0
KPFS 110950Z 01022G28KT 14/M03 A30 RMK A01 T01381025  RH  033%=      5-min Rain = 0
KPFS 110955Z 02022G31KT 14/M02 A30 RMK A01 T01381024  RH  033%=      5-min Rain = 0
KPFS 111000Z 01020G33KT 14/M02 A30 RMK A01 T01371023  RH  033%=      5-min Rain = 0
KPFS 111005Z 01019G29KT 14/M02 A3001 RMK A01 T01361022  RH  034%=      5-min Rain = 0
KPFS 111010Z 01021G28KT 14/M02 A3001 RMK A01 T01351022  RH  034%=      5-min Rain = 0
KPFS 111015Z 01019G26KT 13/M02 A3001 RMK A01 T01341022  RH  034%=      5-min Rain = 0
KPFS 111020Z 01022G30KT 13/M02 A3001 RMK A01 T01341022  RH  034%=      5-min Rain = 0
KPFS 111025Z 01021G26KT 13/M02 A3002 RMK A01 T01341023  RH  034%=      5-min Rain = 0
KPFS 111030Z 01021G29KT 13/M02 A3002 RMK A01 T01331023  RH  034%=      5-min Rain = 0
KPFS 111035Z 01020G28KT 13/M02 A3002 RMK A01 T01321023  RH  034%=      5-min Rain = 0
KPFS 111040Z 02020G27KT 13/M02 A3002 RMK A01 T01321024  RH  034%=      5-min Rain = 0
KPFS 111045Z 02020G29KT 13/M02 A3003 RMK A01 T01321024  RH  034%=      5-min Rain = 0
KPFS 111050Z 01019G25KT 13/M03 A3004 RMK A01 T01311025  RH  034%=      5-min Rain = 0
KPFS 111055Z 01019G25KT 13/M02 A3004 RMK A01 T01311024  RH  035%=      5-min Rain = 0
KPFS 111100Z 01020G27KT 13/M02 A3004 RMK A01 T01311024  RH  035%=      5-min Rain = 0
KPFS 111105Z 01019G31KT 13/M02 A3005 RMK A01 T01301023  RH  035%=      5-min Rain = 0
KPFS 111110Z 01022G32KT 13/M02 A3005 RMK A01 T01301023  RH  035%=      5-min Rain = 0
KPFS 111115Z 01021G28KT 13/M02 A3006 RMK A01 T01291023  RH  035%=      5-min Rain = 0
KPFS 111120Z 01018G25KT 13/M02 A3006 RMK A01 T01281022  RH  036%=      5-min Rain = 0
KPFS 111125Z 01021G31KT 13/M02 A3006 RMK A01 T01271024  RH  035%=      5-min Rain = 0
KPFS 111130Z 01023G33KT 13/M03 A3006 RMK A01 T01271027  RH  034%=      5-min Rain = 0
KPFS 111135Z 01022G31KT 13/M03 A3006 RMK A01 T01261031  RH  034%=      5-min Rain = 0
KPFS 111140Z 01018G28KT 13/M03 A3007 RMK A01 T01251031  RH  034%=      5-min Rain = 0
KPFS 111145Z 01021G31KT 12/M03 A3007 RMK A01 T01241032  RH  034%=      5-min Rain = 0
KPFS 111150Z 01021G31KT 12/M03 A3007 RMK A01 T01231032  RH  034%=      5-min Rain = 0
KPFS 111155Z 01020G30KT 12/M03 A3007 RMK A01 T01211033  RH  034%=      5-min Rain = 0
KPFS 111200Z 01022G27KT 12/M03 A3007 RMK A01 T01211033  RH  034%=      5-min Rain = 0
KPFS 111205Z 01023G32KT 12/M03 A3007 RMK A01 T01201032  RH  035%=      5-min Rain = 0
KPFS 111210Z 01021G30KT 12/M03 A3008 RMK A01 T01191032  RH  035%=      5-min Rain = 0
KPFS 111215Z 01021G29KT 12/M03 A3008 RMK A01 T01181033  RH  035%=      5-min Rain = 0
KPFS 111220Z 01024G34KT 12/M04 A3008 RMK A01 T01171035  RH  035%=      5-min Rain = 0
KPFS 111225Z 01025G34KT 12/M04 A3009 RMK A01 T01161037  RH  034%=      5-min Rain = 0
KPFS 111230Z 01018G28KT 12/M04 A3009 RMK A01 T01151036  RH  035%=      5-min Rain = 0
KPFS 111235Z 01015G23KT 11/M04 A301 RMK A01 T01121035  RH  036%=      5-min Rain = 0
KPFS 111240Z 00020G28KT 11/M03 A301 RMK A01 T01111032  RH  037%=      5-min Rain = 0
KPFS 111245Z 00019G30KT 11/M03 A301 RMK A01 T01091028  RH  039%=      5-min Rain = 0
KPFS 111250Z 00021G30KT 11/M03 A3011 RMK A01 T01071027  RH  039%=      5-min Rain = 0
KPFS 111255Z 01019G27KT 11/M03 A3011 RMK A01 T01061027  RH  040%=      5-min Rain = 0
KPFS 111300Z 00021G29KT 10/M03 A3012 RMK A01 T01041026  RH  040%=      5-min Rain = 0
KPFS 111305Z 01020G29KT 10/M03 A3012 RMK A01 T01021026  RH  041%=      5-min Rain = 0
KPFS 111310Z 01020G27KT 10/M03 A3012 RMK A01 T01021025  RH  042%=      5-min Rain = 0
KPFS 111315Z 01018G24KT 10/M02 A3012 RMK A01 T01011024  RH  042%=      5-min Rain = 0
KPFS 111320Z 01015G22KT 10/M02 A3013 RMK A01 T01001023  RH  043%=      5-min Rain = 0
KPFS 111325Z 01017G24KT 10/M02 A3013 RMK A01 T01001023  RH  043%=      5-min Rain = 0
KPFS 111330Z 01017G24KT 10/M02 A3013 RMK A01 T01001022  RH  043%=      5-min Rain = 0
KPFS 111335Z 01017G26KT 10/M02 A3013 RMK A01 T01011021  RH  043%=      5-min Rain = 0
KPFS 111340Z 01018G27KT 10/M02 A3014 RMK A01 T01021021  RH  043%=      5-min Rain = 0
KPFS 111345Z 01021G28KT 10/M02 A3014 RMK A01 T01011023  RH  042%=      5-min Rain = 0
KPFS 111350Z 01018G27KT 10/M02 A3015 RMK A01 T01011023  RH  042%=      5-min Rain = 0
KPFS 111355Z 01018G27KT 10/M02 A3015 RMK A01 T01011024  RH  042%=      5-min Rain = 0
KPFS 111400Z 36018G23KT 10/M03 A3016 RMK A01 T01021027  RH  041%=      5-min Rain = 0
KPFS 111405Z 36018G24KT 10/M03 A3016 RMK A01 T00991030  RH  040%=      5-min Rain = 0
KPFS 111410Z 00019G28KT 10/M03 A3017 RMK A01 T00981034  RH  040%=      5-min Rain = 0
KPFS 111415Z 01020G26KT 10/M04 A3017 RMK A01 T00981036  RH  039%=      5-min Rain = 0
KPFS 111420Z 00019G27KT 10/M04 A3018 RMK A01 T01011035  RH  039%=      5-min Rain = 0
KPFS 111425Z 35022G28KT 10/M04 A3018 RMK A01 T00971035  RH  040%=      5-min Rain = 0
KPFS 111430Z 00023G32KT 09/M03 A3018 RMK A01 T00941033  RH  041%=      5-min Rain = 0
KPFS 111435Z 36021G29KT 09/M03 A3019 RMK A01 T00931032  RH  042%=      5-min Rain = 0
KPFS 111440Z 00021G30KT 09/M03 A3019 RMK A01 T00931031  RH  042%=      5-min Rain = 0
KPFS 111445Z 01020G27KT 09/M03 A3019 RMK A01 T00931031  RH  042%=      5-min Rain = 0
KPFS 111450Z 00020G32KT 10/M03 A3019 RMK A01 T00951030  RH  042%=      5-min Rain = 0
KPFS 111455Z 00023G32KT 09/M03 A302 RMK A01 T00931030  RH  043%=      5-min Rain = 0
KPFS 111500Z 00020G29KT 09/M03 A302 RMK A01 T00921030  RH  042%=      5-min Rain = 0
KPFS 111505Z 01021G29KT 09/M03 A302 RMK A01 T00921031  RH  042%=      5-min Rain = 0
KPFS 111510Z 01021G29KT 09/M03 A302 RMK A01 T00911032  RH  042%=      5-min Rain = 0
KPFS 111515Z 36019G27KT 09/M03 A3021 RMK A01 T00901032  RH  043%=      5-min Rain = 0
KPFS 111520Z 36020G29KT 09/M03 A3022 RMK A01 T00901033  RH  042%=      5-min Rain = 0
KPFS 111525Z 00020G26KT 09/M04 A3022 RMK A01 T00891036  RH  042%=      5-min Rain = 0
KPFS 111530Z 36020G28KT 09/M04 A3022 RMK A01 T00891038  RH  041%=      5-min Rain = 0
KPFS 111535Z 00021G29KT 09/M04 A3022 RMK A01 T00901039  RH  040%=      5-min Rain = 0
KPFS 111540Z 00021G30KT 09/M04 A3023 RMK A01 T00891044  RH  039%=      5-min Rain = 0
KPFS 111545Z 01022G28KT 09/M05 A3023 RMK A01 T00881047  RH  038%=      5-min Rain = 0
KPFS 111550Z 00017G24KT 09/M04 A3023 RMK A01 T00911043  RH  039%=      5-min Rain = 0
KPFS 111555Z 00021G27KT 09/M04 A3023 RMK A01 T00921041  RH  039%=      5-min Rain = 0
KPFS 111600Z 00016G26KT 09/M04 A3023 RMK A01 T00931037  RH  040%=      5-min Rain = 0
KPFS 111605Z 35019G25KT 09/M04 A3024 RMK A01 T00921038  RH  040%=      5-min Rain = 0
KPFS 111610Z 36020G28KT 09/M04 A3024 RMK A01 T00931041  RH  039%=      5-min Rain = 0
KPFS 111615Z 36018G26KT 10/M05 A3024 RMK A01 T00951047  RH  037%=      5-min Rain = 0
KPFS 111620Z 36016G23KT 10/M05 A3025 RMK A01 T00991048  RH  036%=      5-min Rain = 0
KPFS 111625Z 35018G26KT 10/M05 A3024 RMK A01 T00991050  RH  035%=      5-min Rain = 0
KPFS 111630Z 35018G25KT 10/M06 A3025 RMK A01 T00961058  RH  033%=      5-min Rain = 0
KPFS 111635Z 35018G24KT 10/M06 A3025 RMK A01 T00991060  RH  032%=      5-min Rain = 0
KPFS 111640Z 00019G27KT 10/M06 A3025 RMK A01 T01001062  RH  032%=      5-min Rain = 0
KPFS 111645Z 36019G27KT 10/M06 A3025 RMK A01 T01021061  RH  032%=      5-min Rain = 0
KPFS 111650Z 36019G26KT 10/M06 A3025 RMK A01 T01021064  RH  031%=      5-min Rain = 0
KPFS 111655Z 36016G24KT 10/M06 A3025 RMK A01 T01041064  RH  030%=      5-min Rain = 0
KPFS 111700Z 00021G27KT 10/M07 A3025 RMK A01 T00981070  RH  030%=      5-min Rain = 0
KPFS 111705Z 01018G24KT 10/M07 A3026 RMK A01 T01011070  RH  030%=      5-min Rain = 0
KPFS 111710Z 00019G25KT 11/M08 A3026 RMK A01 T01051075  RH  028%=      5-min Rain = 0
KPFS 111715Z 00019G29KT 11/M08 A3026 RMK A01 T01071076  RH  027%=      5-min Rain = 0
KPFS 111720Z 00019G29KT 11/M08 A3026 RMK A01 T01081078  RH  026%=      5-min Rain = 0
KPFS 111725Z 36020G28KT 11/M08 A3026 RMK A01 T01081081  RH  026%=      5-min Rain = 0
KPFS 111730Z 36018G27KT 11/M08 A3026 RMK A01 T01101079  RH  026%=      5-min Rain = 0
KPFS 111735Z 36017G27KT 11/M08 A3026 RMK A01 T01101079  RH  026%=      5-min Rain = 0
KPFS 111740Z 36019G27KT 11/M08 A3026 RMK A01 T01121080  RH  025%=      5-min Rain = 0
KPFS 111745Z 35018G27KT 12/M08 A3026 RMK A01 T01171080  RH  025%=      5-min Rain = 0
KPFS 111750Z 01022G28KT 12/M08 A3026 RMK A01 T01161082  RH  024%=      5-min Rain = 0
KPFS 111755Z 01020G27KT 12/M08 A3026 RMK A01 T01191082  RH  024%=      5-min Rain = 0
KPFS 111800Z 00019G26KT 12/M08 A3026 RMK A01 T01161081  RH  025%=      5-min Rain = 0
KPFS 111805Z 36018G28KT 11/M08 A3026 RMK A01 T01141080  RH  025%=      5-min Rain = 0
KPFS 111810Z 36017G24KT 12/M08 A3026 RMK A01 T01151081  RH  025%=      5-min Rain = 0
KPFS 111815Z 00016G23KT 12/M08 A3026 RMK A01 T01201080  RH  024%=      5-min Rain = 0
KPFS 111820Z 01016G23KT 12/M08 A3026 RMK A01 T01231081  RH  024%=      5-min Rain = 0
KPFS 111825Z 36016G23KT 12/M08 A3026 RMK A01 T01231081  RH  024%=      5-min Rain = 0
KPFS 111830Z 36017G24KT 12/M08 A3026 RMK A01 T01191083  RH  024%=      5-min Rain = 0
KPFS 111835Z 00017G24KT 13/M08 A3026 RMK A01 T01251083  RH  023%=      5-min Rain = 0
KPFS 111840Z 01018G25KT 13/M08 A3026 RMK A01 T01341082  RH  022%=      5-min Rain = 0
KPFS 111845Z 01018G24KT 14/M08 A3025 RMK A01 T01371083  RH  021%=      5-min Rain = 0
KPFS 111850Z 00019G25KT 14/M08 A3025 RMK A01 T01381084  RH  021%=      5-min Rain = 0
KPFS 111855Z 36020KT 14/M08 A3025 RMK A01 T01371083  RH  021%=      5-min Rain = 0
KPFS 111900Z 36018G26KT 14/M08 A3025 RMK A01 T01391081  RH  021%=      5-min Rain = 0
KPFS 111905Z 36015G22KT 14/M08 A3025 RMK A01 T01441081  RH  021%=      5-min Rain = 0
KPFS 111910Z 36013G18KT 15/M08 A3025 RMK A01 T01491083  RH  020%=      5-min Rain = 0
KPFS 111915Z 36019G26KT 15/M09 A3025 RMK A01 T01451086  RH  020%=      5-min Rain = 0
KPFS 111920Z 01019G28KT 14/M09 A3025 RMK A01 T01351091  RH  020%=      5-min Rain = 0
KPFS 111925Z 00017G24KT 14/M09 A3024 RMK A01 T01351086  RH  021%=      5-min Rain = 0
KPFS 111930Z 01016G25KT 14/M09 A3025 RMK A01 T01401085  RH  021%=      5-min Rain = 0
KPFS 111935Z 01017G25KT 14/M09 A3024 RMK A01 T01371085  RH  021%=      5-min Rain = 0
KPFS 111940Z 01016G25KT 14/M08 A3024 RMK A01 T01411084  RH  021%=      5-min Rain = 0
KPFS 111945Z 35014G19KT 14/M08 A3024 RMK A01 T01391082  RH  021%=      5-min Rain = 0
KPFS 111950Z 00016G23KT 13/M08 A3024 RMK A01 T01341084  RH  021%=      5-min Rain = 0
KPFS 111955Z 35015G23KT 14/M09 A3024 RMK A01 T01351085  RH  021%=      5-min Rain = 0
KPFS 112000Z 35015G23KT 14/M08 A3024 RMK A01 T01421083  RH  020%=      5-min Rain = 0
KPFS 112005Z 00014G20KT 14/M08 A3024 RMK A01 T01401084  RH  021%=      5-min Rain = 0
KPFS 112010Z 36012KT 14/M09 A3024 RMK A01 T01351085  RH  021%=      5-min Rain = 0
KPFS 112015Z 36012G19KT 14/M08 A3024 RMK A01 T01381083  RH  021%=      5-min Rain = 0
KPFS 112020Z 35013G20KT 14/M09 A3024 RMK A01 T01421085  RH  020%=      5-min Rain = 0
KPFS 112025Z 34014G20KT 14/M09 A3024 RMK A01 T01391088  RH  020%=      5-min Rain = 0
KPFS 112030Z 00014G19KT 14/M09 A3024 RMK A01 T01371086  RH  021%=      5-min Rain = 0
KPFS 112035Z 35013G18KT 14/M09 A3024 RMK A01 T01391085  RH  021%=      5-min Rain = 0
KPFS 112040Z 35012G19KT 14/M09 A3024 RMK A01 T01441085  RH  020%=      5-min Rain = 0
KPFS 112045Z 36011G17KT 15/M08 A3023 RMK A01 T01491084  RH  019%=      5-min Rain = 0
KPFS 112050Z 34012G17KT 15/M09 A3023 RMK A01 T01491088  RH  019%=      5-min Rain = 0
KPFS 112055Z 00014G19KT 15/M09 A3023 RMK A01 T01531092  RH  018%=      5-min Rain = 0
KPFS 112100Z 01014KT 15/M09 A3023 RMK A01 T01511094  RH  018%=      5-min Rain = 0
KPFS 112105Z 00012G20KT 16/M10 A3023 RMK A01 T01591097  RH  016%=      5-min Rain = 0
KPFS 112110Z 36009KT 16/M10 A3022 RMK A01 T01571101  RH  016%=      5-min Rain = 0
KPFS 112115Z 35012G19KT 16/M10 A3022 RMK A01 T01551104  RH  016%=      5-min Rain = 0
KPFS 112120Z 35012G21KT 15/M11 A3022 RMK A01 T01531107  RH  016%=      5-min Rain = 0
KPFS 112125Z 01013G21KT 15/M12 A3021 RMK A01 T01531117  RH  015%=      5-min Rain = 0
KPFS 112130Z 36016G27KT 16/M12 A3021 RMK A01 T01611116  RH  014%=      5-min Rain = 0
KPFS 112135Z 01015G21KT 16/M12 A3021 RMK A01 T01581117  RH  014%=      5-min Rain = 0
KPFS 112140Z 00015G23KT 16/M12 A3021 RMK A01 T01621116  RH  014%=      5-min Rain = 0
KPFS 112145Z 01013G19KT 16/M12 A302 RMK A01 T01621124  RH  013%=      5-min Rain = 0
KPFS 112150Z 01014G22KT 16/M13 A3021 RMK A01 T01621132  RH  012%=      5-min Rain = 0
KPFS 112155Z 36012G19KT 16/M12 A3021 RMK A01 T01621122  RH  013%=      5-min Rain = 0
KPFS 112200Z 01013G18KT 16/M13 A3021 RMK A01 T01621127  RH  013%=      5-min Rain = 0
KPFS 112205Z 01016G22KT 16/M13 A3021 RMK A01 T01611129  RH  013%=      5-min Rain = 0
KPFS 112210Z 36012G17KT 16/M14 A3021 RMK A01 T01551136  RH  012%=      5-min Rain = 0
KPFS 112215Z 36013G19KT 16/M14 A3021 RMK A01 T01551141  RH  012%=      5-min Rain = 0
KPFS 112220Z 00012G17KT 16/M14 A3021 RMK A01 T01581139  RH  012%=      5-min Rain = 0
KPFS 112225Z 01014G19KT 16/M14 A3021 RMK A01 T01631144  RH  011%=      5-min Rain = 0
KPFS 112230Z 01013G18KT 16/M14 A3021 RMK A01 T01611139  RH  012%=      5-min Rain = 0
KPFS 112235Z 01015G21KT 16/M14 A3021 RMK A01 T01611140  RH  012%=      5-min Rain = 0
KPFS 112240Z 36013G19KT 16/M14 A3021 RMK A01 T01631143  RH  011%=      5-min Rain = 0
KPFS 112245Z 36014G19KT 16/M15 A3021 RMK A01 T01611153  RH  010%=      5-min Rain = 0
KPFS 112250Z 01014G20KT 16/M16 A3021 RMK A01 T01611164  RH  010%=      5-min Rain = 0
KPFS 112255Z 01015G22KT 16/M16 A3021 RMK A01 T01621157  RH  010%=      5-min Rain = 0
KPFS 112300Z 01013G19KT 16/M16 A3021 RMK A01 T01601160  RH  010%=      5-min Rain = 0
KPFS 112305Z 01014G19KT 16/M16 A3021 RMK A01 T01551164  RH  010%=      5-min Rain = 0
KPFS 112310Z 01014G22KT 16/M16 A3022 RMK A01 T01561163  RH  010%=      5-min Rain = 0
KPFS 112315Z 01016G21KT 16/M16 A3022 RMK A01 T01551157  RH  010%=      5-min Rain = 0
KPFS 112320Z 01013G19KT 16/M16 A3022 RMK A01 T01551156  RH  011%=      5-min Rain = 0
KPFS 112325Z 02014G19KT 15/M16 A3022 RMK A01 T01541158  RH  010%=      5-min Rain = 0
KPFS 112330Z 01014G20KT 15/M16 A3023 RMK A01 T01521156  RH  011%=      5-min Rain = 0
KPFS 112335Z 01013G21KT 15/M16 A3023 RMK A01 T01511156  RH  011%=      5-min Rain = 0
KPFS 112340Z 01013G20KT 15/M16 A3023 RMK A01 T01491160  RH  011%=      5-min Rain = 0
KPFS 112345Z 01015KT 15/M17 A3023 RMK A01 T01491165  RH  010%=      5-min Rain = 0
KPFS 112350Z 00013G19KT 15/M16 A3024 RMK A01 T01471162  RH  011%=      5-min Rain = 0
KPFS 112355Z 01010G15KT 14/M16 A3024 RMK A01 T01441159  RH  011%=      5-min Rain = 0
KPFS 120000Z 00011G16KT 15/M15 A3024 RMK A01 T01451153  RH  011%=      5-min Rain = 0
KPFS 120005Z 01010KT 14/M15 A3024 RMK A01 T01421150  RH  012%=      5-min Rain = 0
KPFS 120010Z 00010G16KT 14/M15 A3024 RMK A01 T01421153  RH  012%=      5-min Rain = 0
KPFS 120015Z 01011G16KT 14/M15 A3024 RMK A01 T01381145  RH  013%=      5-min Rain = 0
KPFS 120020Z 01012G17KT 14/M14 A3025 RMK A01 T01361142  RH  013%=      5-min Rain = 0
KPFS 120025Z 01011KT 13/M14 A3025 RMK A01 T01321139  RH  014%=      5-min Rain = 0
KPFS 120030Z 01009KT 13/M14 A3025 RMK A01 T01291135  RH  015%=      5-min Rain = 0
KPFS 120035Z 01011KT 13/M12 A3025 RMK A01 T01271124  RH  016%=      5-min Rain = 0
KPFS 120040Z 01011KT 12/M12 A3025 RMK A01 T01241118  RH  018%=      5-min Rain = 0
KPFS 120045Z 01009KT 12/M11 A3025 RMK A01 T01211114  RH  018%=      5-min Rain = 0
KPFS 120050Z 01009KT 12/M11 A3026 RMK A01 T01181111  RH  019%=      5-min Rain = 0
KPFS 120055Z 00008KT 12/M11 A3026 RMK A01 T01161107  RH  020%=      5-min Rain = 0
KPFS 120100Z 01007KT 11/M11 A3026 RMK A01 T01131106  RH  021%=      5-min Rain = 0
KPFS 120105Z 01007KT 11/M11 A3026 RMK A01 T01111105  RH  021%=      5-min Rain = 0
KPFS 120110Z 01007KT 11/M10 A3026 RMK A01 T01111104  RH  021%=      5-min Rain = 0
KPFS 120115Z 01006KT 11/M10 A3026 RMK A01 T01091103  RH  022%=      5-min Rain = 0
KPFS 120120Z 01005KT 11/M10 A3027 RMK A01 T01081103  RH  022%=      5-min Rain = 0
KPFS 120125Z 35003KT 11/M10 A3027 RMK A01 T01051104  RH  022%=      5-min Rain = 0
KPFS 120130Z 35003KT 10/M10 A3027 RMK A01 T01031103  RH  022%=      5-min Rain = 0
KPFS 120135Z 35004KT 10/M10 A3027 RMK A01 T01031103  RH  023%=      5-min Rain = 0
KPFS 120140Z 00005KT 10/M10 A3027 RMK A01 T01041102  RH  023%=      5-min Rain = 0
KPFS 120145Z 00005KT 10/M10 A3028 RMK A01 T01041102  RH  023%=      5-min Rain = 0
KPFS 120150Z 01006KT 11/M10 A3028 RMK A01 T01061101  RH  023%=      5-min Rain = 0
KPFS 120155Z 00006KT 11/M10 A3028 RMK A01 T01051101  RH  023%=      5-min Rain = 0
KPFS 120200Z 00006KT 10/M10 A3028 RMK A01 T01041101  RH  023%=      5-min Rain = 0
KPFS 120205Z 02005KT 10/M10 A3029 RMK A01 T01021101  RH  023%=      5-min Rain = 0
KPFS 120210Z 01006KT 10/M10 A3029 RMK A01 T01001100  RH  024%=      5-min Rain = 0
KPFS 120215Z 01006KT 10/M10 A3029 RMK A01 T01001099  RH  024%=      5-min Rain = 0
KPFS 120220Z 01006KT 10/M10 A303 RMK A01 T00991098  RH  024%=      5-min Rain = 0
KPFS 120225Z 02006KT 10/M10 A303 RMK A01 T00981096  RH  025%=      5-min Rain = 0
KPFS 120230Z 02006KT 10/M09 A303 RMK A01 T00971092  RH  026%=      5-min Rain = 0
KPFS 120235Z 02006KT 10/M09 A303 RMK A01 T00951089  RH  027%=      5-min Rain = 0
KPFS 120240Z 01005KT 09/M09 A303 RMK A01 T00931089  RH  027%=      5-min Rain = 0
KPFS 120245Z 02005KT 09/M09 A303 RMK A01 T00901091  RH  027%=      5-min Rain = 0
KPFS 120250Z 01005KT 09/M09 A303 RMK A01 T00871093  RH  027%=      5-min Rain = 0
KPFS 120255Z 01005KT 09/M09 A303 RMK A01 T00851092  RH  028%=      5-min Rain = 0
KPFS 120300Z 02005KT 08/M09 A3031 RMK A01 T00841090  RH  029%=      5-min Rain = 0
KPFS 120305Z 02005KT 08/M09 A3031 RMK A01 T00831085  RH  030%=      5-min Rain = 0
KPFS 120310Z 02005KT 08/M08 A3031 RMK A01 T00831079  RH  031%=      5-min Rain = 0
KPFS 120315Z 01004KT 08/M08 A3031 RMK A01 T00811077  RH  032%=      5-min Rain = 0
KPFS 120320Z 01004KT 08/M08 A3031 RMK A01 T00791077  RH  032%=      5-min Rain = 0
KPFS 120325Z 00004KT 08/M08 A3032 RMK A01 T00761079  RH  033%=      5-min Rain = 0
KPFS 120330Z 01005KT 07/M08 A3032 RMK A01 T00731080  RH  033%=      5-min Rain = 0
KPFS 120335Z 01006KT 07/M08 A3032 RMK A01 T00741078  RH  034%=      5-min Rain = 0
KPFS 120340Z 01005KT 07/M08 A3032 RMK A01 T00721079  RH  034%=      5-min Rain = 0
KPFS 120345Z 01006KT 07/M08 A3032 RMK A01 T00671080  RH  035%=      5-min Rain = 0
KPFS 120350Z 01006KT 06/M08 A3032 RMK A01 T00621080  RH  036%=      5-min Rain = 0
KPFS 120355Z 01006KT 06/M08 A3033 RMK A01 T00601079  RH  037%=      5-min Rain = 0
KPFS 120400Z 01006KT 06/M08 A3033 RMK A01 T00591078  RH  037%=      5-min Rain = 0
KPFS 120405Z 01006KT 06/M08 A3033 RMK A01 T00581077  RH  038%=      5-min Rain = 0
KPFS 120410Z 01006KT 06/M08 A3033 RMK A01 T00581076  RH  038%=      5-min Rain = 0
KPFS 120415Z 02005KT 06/M08 A3033 RMK A01 T00561077  RH  038%=      5-min Rain = 0
KPFS 120420Z 02007KT 05/M08 A3033 RMK A01 T00511078  RH  039%=      5-min Rain = 0
KPFS 120425Z 03007KT 05/M08 A3033 RMK A01 T00481077  RH  040%=      5-min Rain = 0
KPFS 120430Z 03006KT 05/M08 A3033 RMK A01 T00461077  RH  041%=      5-min Rain = 0
KPFS 120435Z 03006KT 05/M08 A3033 RMK A01 T00451076  RH  041%=      5-min Rain = 0
KPFS 120440Z 02005KT 05/M08 A3033 RMK A01 T00451076  RH  041%=      5-min Rain = 0
KPFS 120445Z 03004KT 05/M08 A3034 RMK A01 T00451075  RH  042%=      5-min Rain = 0
KPFS 120450Z 03004KT 05/M08 A3034 RMK A01 T00471075  RH  042%=      5-min Rain = 0
KPFS 120455Z 02005KT 05/M08 A3034 RMK A01 T00451075  RH  042%=      5-min Rain = 0

Page generated in 0.0092 seconds.